Time;durP1;ratioP1;P1;durP2;ratioP2;P2;SDS_P1;SDS_P2;PMS_P1;PMS_P2;Temp;Humidity;BMP_temperature;BMP_pressure;BME280_temperature;BME280_humidity;BME280_pressure;Samples;Min_cycle;Max_cycle;Signal;HPM_P1;HPM_P2
2022/07/15 00:00:00;;;;;;;0.30;0.30;;;21.50;35.10;;;19.48;36.77;101317.59;12236512;19;20018;-77
2022/07/15 00:04:02;;;;;;;1.35;0.52;;;21.40;35.10;;;19.39;36.90;101311.25;12237859;19;20037;-77
2022/07/15 00:08:05;;;;;;;0.70;0.50;;;21.30;35.00;;;19.25;36.82;101293.00;12242810;19;20035;-78
2022/07/15 00:12:06;;;;;;;1.60;0.60;;;21.20;35.10;;;19.25;36.79;101293.00;12238341;19;20027;-78
2022/07/15 00:16:08;;;;;;;0.88;0.57;;;21.20;35.10;;;19.11;36.90;101270.31;12242651;19;20515;-77
2022/07/15 00:20:12;;;;;;;0.75;0.47;;;21.20;35.30;;;19.38;37.08;101322.78;12241301;19;20018;-78
2022/07/15 00:24:14;;;;;;;2.15;0.50;;;21.20;35.30;;;19.34;36.99;101318.72;12240193;19;20014;-77
2022/07/15 00:28:16;;;;;;;2.92;0.63;;;21.10;35.30;;;19.34;37.33;101320.53;12239118;19;20022;-78
2022/07/15 00:32:18;;;;;;;1.25;0.40;;;21.10;35.50;;;19.27;37.33;101317.53;12238300;19;20015;-77
2022/07/15 00:36:19;;;;;;;1.70;0.50;;;21.10;35.60;;;19.19;37.11;101293.50;12241038;19;20014;-77
2022/07/15 00:40:22;;;;;;;0.75;0.50;;;21.00;35.70;;;19.13;37.58;101294.84;12237519;19;20052;-77
2022/07/15 00:44:25;;;;;;;2.50;0.98;;;21.10;35.80;;;19.24;37.49;101317.81;12241288;19;20405;-78
2022/07/15 00:48:27;;;;;;;0.88;0.55;;;21.30;35.90;;;19.17;37.57;101311.31;12239282;19;20033;-77
2022/07/15 00:52:30;;;;;;;2.30;0.45;;;20.90;35.80;;;18.99;37.77;101295.16;12237514;19;20499;-77
2022/07/15 00:56:40;;;;;;;1.05;0.52;;;21.00;35.90;;;19.06;37.88;101306.06;12238300;19;20018;-77
2022/07/15 01:00:44;;;;;;;0.70;0.60;;;20.90;36.00;;;18.98;37.80;101306.69;12237039;19;20480;-77
2022/07/15 01:04:48;;;;;;;0.75;0.40;;;20.90;36.00;;;19.07;37.93;101323.66;12226173;19;20073;-78
2022/07/15 01:08:52;;;;;;;0.80;0.60;;;20.80;36.00;;;18.74;37.88;101278.63;12220359;19;20039;-78
2022/07/15 01:12:55;;;;;;;1.60;0.55;;;20.80;36.10;;;18.89;38.15;101313.59;12233130;19;20010;-77
2022/07/15 01:17:11;;;;;;;0.70;0.38;;;21.10;36.20;;;18.92;38.50;101333.66;12233907;19;20056;-77
2022/07/15 01:21:14;;;;;;;1.58;0.65;;;20.80;36.40;;;18.80;38.32;101324.91;12229910;19;20094;-78
2022/07/15 01:25:16;;;;;;;0.73;0.68;;;20.90;36.40;;;18.57;38.38;101303.75;12231227;19;20010;-78
2022/07/15 01:29:21;;;;;;;1.13;0.50;;;20.60;36.30;;;18.57;38.61;101316.97;12232498;19;20019;-78
2022/07/15 01:33:26;;;;;;;2.13;0.57;;;20.90;36.60;;;18.49;38.54;101314.09;12231487;19;20018;-78
2022/07/15 01:37:31;;;;;;;2.10;0.57;;;20.50;36.50;;;18.45;38.79;101315.31;12235689;19;20041;-78
2022/07/15 01:41:33;;;;;;;1.67;0.98;;;20.40;36.40;;;18.27;38.60;101303.53;12234130;19;20287;-77
2022/07/15 01:45:36;;;;;;;1.17;0.60;;;20.30;36.40;;;18.30;38.72;101329.72;12244539;19;20021;-78
2022/07/15 01:49:38;;;;;;;1.67;0.80;;;20.30;36.60;;;18.27;38.85;101324.69;12247633;19;20032;-77
2022/07/15 01:53:46;;;;;;;0.93;0.90;;;20.20;36.90;;;18.23;39.18;101326.72;12243934;19;20010;-77
2022/07/15 01:57:48;;;;;;;1.55;0.73;;;20.20;36.90;;;18.13;39.33;101316.03;12249227;19;20072;-77
2022/07/15 02:01:52;;;;;;;1.05;0.40;;;20.10;37.10;;;18.18;39.23;101325.41;12243334;19;20382;-77
2022/07/15 02:05:55;;;;;;;3.75;0.60;;;20.10;37.70;;;18.19;39.16;101325.28;12250678;19;20031;-77
2022/07/15 02:10:00;;;;;;;0.93;0.45;;;20.00;37.30;;;18.08;39.43;101312.88;12245513;19;20027;-77
2022/07/15 02:14:02;;;;;;;0.68;0.47;;;20.00;37.60;;;17.93;39.76;101303.53;12247421;19;20022;-77
2022/07/15 02:18:07;;;;;;;1.60;0.47;;;20.00;37.50;;;17.94;39.48;101318.41;12246521;19;20039;-77
2022/07/15 02:22:08;;;;;;;0.68;0.50;;;20.00;37.50;;;18.01;39.70;101338.13;12246134;19;20026;-77
2022/07/15 02:26:10;;;;;;;1.60;0.40;;;19.90;37.50;;;17.89;39.66;101328.50;12246521;19;20029;-77
2022/07/15 02:30:12;;;;;;;4.25;1.27;;;19.80;37.50;;;17.83;39.76;101326.31;12244782;19;20031;-77
2022/07/15 02:34:14;;;;;;;0.98;0.50;;;19.80;37.60;;;17.76;39.79;101338.28;12241762;19;20360;-77
2022/07/15 02:38:17;;;;;;;1.02;0.65;;;19.70;37.60;;;17.39;40.00;101298.78;12247500;19;20043;-77
2022/07/15 02:42:19;;;;;;;0.90;0.60;;;19.70;37.70;;;17.60;40.21;101344.69;12237840;19;20017;-77
2022/07/15 02:46:22;;;;;;;2.65;0.63;;;19.60;37.70;;;17.46;39.91;101318.50;12237698;19;20015;-76
2022/07/15 02:50:24;;;;;;;2.10;0.57;;;19.70;37.80;;;17.02;40.04;101259.28;12243352;19;20539;-77
2022/07/15 02:54:26;;;;;;;1.67;0.70;;;19.50;37.70;;;17.53;40.34;101361.16;12242748;19;20027;-77
2022/07/15 02:58:30;;;;;;;1.20;0.60;;;19.50;37.80;;;17.43;40.53;101348.59;12242916;19;20018;-77
2022/07/15 03:02:34;;;;;;;0.50;0.35;;;19.40;37.90;;;17.32;40.46;101351.19;12241538;19;20019;-77
2022/07/15 03:06:40;;;;;;;0.88;0.70;;;19.30;37.90;;;17.30;40.35;101365.47;12241732;19;20018;-77
2022/07/15 03:10:43;;;;;;;1.42;0.60;;;19.50;38.00;;;17.18;40.56;101339.03;12240960;19;20014;-77
2022/07/15 03:14:45;;;;;;;1.48;0.60;;;19.50;38.20;;;17.12;40.50;101349.16;12239393;19;20095;-77
2022/07/15 03:18:47;;;;;;;2.78;0.80;;;19.10;38.10;;;17.19;40.74;101375.00;12240928;19;20345;-77
2022/07/15 03:22:50;;;;;;;1.45;0.70;;;19.10;38.20;;;17.12;40.66;101365.88;12238991;19;20018;-77
2022/07/15 03:26:52;;;;;;;1.77;0.70;;;19.00;38.30;;;17.05;40.90;101372.53;12244565;19;20043;-77
2022/07/15 03:30:55;;;;;;;0.80;0.80;;;19.40;38.70;;;16.98;40.87;101374.75;12238982;19;20018;-77
2022/07/15 03:34:57;;;;;;;3.40;0.60;;;19.10;38.50;;;16.93;40.94;101370.75;12239771;19;20014;-77
2022/07/15 03:39:03;;;;;;;1.38;0.60;;;19.00;38.60;;;16.99;41.03;101389.66;12241247;19;20038;-77
2022/07/15 03:43:09;;;;;;;2.45;0.60;;;18.90;38.50;;;16.90;41.22;101384.19;12241901;19;20015;-77
2022/07/15 03:47:11;;;;;;;1.98;0.73;;;18.90;38.70;;;16.87;41.25;101387.88;12243705;19;20082;-77
2022/07/15 03:51:13;;;;;;;7.10;0.60;;;18.80;38.80;;;16.75;41.49;101379.00;12238039;19;20058;-77
2022/07/15 03:55:15;;;;;;;3.47;1.10;;;18.80;38.90;;;16.75;41.49;101386.94;12239832;19;20373;-77
2022/07/15 03:59:21;;;;;;;1.45;0.70;;;18.80;39.00;;;16.75;41.48;101397.47;12240529;19;20006;-77
2022/07/15 04:03:25;;;;;;;1.92;0.65;;;18.70;39.10;;;16.74;41.75;101397.56;12241910;19;20358;-77
2022/07/15 04:07:26;;;;;;;1.40;0.60;;;18.70;39.20;;;16.71;41.72;101393.34;12239299;19;20024;-77
2022/07/15 04:11:28;;;;;;;2.67;0.60;;;18.70;39.30;;;16.57;42.04;101383.78;12238994;19;20049;-77
2022/07/15 04:15:31;;;;;;;3.03;0.65;;;18.70;39.50;;;16.43;42.05;101359.34;12237690;19;20018;-77
2022/07/15 04:19:34;;;;;;;1.45;0.80;;;18.80;39.70;;;16.69;42.08;101395.28;12241305;19;20030;-77
2022/07/15 04:23:39;;;;;;;1.75;0.70;;;18.70;39.60;;;16.74;41.94;101400.22;12241013;19;20495;-77
2022/07/15 04:27:45;;;;;;;2.17;0.60;;;18.60;39.60;;;16.71;42.10;101403.06;12240102;19;20365;-77
2022/07/15 04:31:48;;;;;;;1.48;0.60;;;18.60;39.50;;;16.77;42.23;101418.53;12238212;19;20014;-77
2022/07/15 04:35:57;;;;;;;1.92;0.77;;;18.60;39.70;;;16.77;42.33;101419.34;12232810;19;20007;-77
2022/07/15 04:39:59;;;;;;;5.40;0.77;;;18.60;39.80;;;16.76;42.58;101411.50;12233100;19;20015;-77
2022/07/15 04:44:01;;;;;;;1.50;0.57;;;18.70;40.00;;;16.84;42.63;101411.00;12233165;19;20494;-77
2022/07/15 04:52:30;;;;;;;4.63;1.00;;;18.70;40.10;;;16.95;42.75;101417.19;12227493;19;20115;-77
2022/07/15 04:56:32;;;;;;;1.35;0.80;;;18.70;40.00;;;16.93;42.91;101399.78;12234683;19;20070;-77
2022/07/15 05:00:41;;;;;;;2.00;0.70;;;18.80;40.10;;;17.07;42.78;101426.06;12229278;19;20345;-77
2022/07/15 05:04:46;;;;;;;2.58;0.80;;;18.80;40.00;;;17.02;42.63;101417.63;12233820;19;20368;-77
2022/07/15 05:08:50;;;;;;;1.05;0.55;;;19.10;40.00;;;17.03;42.74;101417.50;12230914;19;20040;-77
2022/07/15 05:12:53;;;;;;;1.25;0.70;;;18.90;40.00;;;17.04;43.14;101415.72;12225140;19;21188;-77
2022/07/15 05:16:55;;;;;;;1.85;0.60;;;19.00;40.20;;;17.25;42.83;101435.28;12228668;19;20429;-77
2022/07/15 05:20:58;;;;;;;1.55;0.98;;;19.20;40.50;;;17.14;42.94;101414.09;12244204;19;20010;-77
2022/07/15 05:25:04;;;;;;;1.67;0.60;;;19.10;40.40;;;17.21;43.09;101423.25;12243314;19;20015;-77
2022/07/15 05:29:07;;;;;;;1.17;0.52;;;19.10;40.30;;;17.48;42.99;101448.63;12241544;19;20070;-77
2022/07/15 05:33:09;;;;;;;1.70;0.75;;;19.20;40.30;;;17.56;42.88;101445.44;12218727;19;20371;-77
2022/07/15 05:37:11;;;;;;;1.83;0.80;;;19.30;40.20;;;17.50;42.66;101427.38;12241893;19;20014;-77
2022/07/15 05:41:13;;;;;;;1.75;0.57;;;19.50;40.20;;;17.69;42.95;101444.41;12241770;19;20023;-77
2022/07/15 05:45:16;;;;;;;1.75;0.77;;;19.50;40.10;;;17.71;43.09;101431.06;12242274;19;20011;-77
2022/07/15 05:49:22;;;;;;;1.17;0.60;;;19.50;40.20;;;17.91;42.86;101450.78;12240588;19;20814;-77
2022/07/15 05:53:27;;;;;;;1.58;0.50;;;19.60;40.20;;;18.04;42.97;101450.72;12237203;19;20018;-77
2022/07/15 05:57:29;;;;;;;1.13;0.57;;;19.70;40.20;;;18.26;42.97;101473.72;12240767;19;20019;-77
2022/07/15 06:01:31;;;;;;;2.08;0.50;;;20.10;40.30;;;18.26;42.69;101461.34;12234278;19;20761;-77
2022/07/15 06:05:32;;;;;;;1.48;0.57;;;20.00;40.10;;;18.31;42.79;101459.19;12238274;19;20030;-77
2022/07/15 06:09:37;;;;;;;3.17;0.80;;;20.10;39.90;;;18.40;42.61;101476.16;12238220;19;20035;-77
2022/07/15 06:13:40;;;;;;;3.03;0.93;;;20.10;39.70;;;18.50;42.81;101476.31;12235246;19;20014;-77
2022/07/15 06:17:42;;;;;;;2.05;0.90;;;20.20;39.70;;;18.54;42.59;101486.50;12238817;19;20018;-77
2022/07/15 06:21:44;;;;;;;6.18;1.10;;;20.30;39.60;;;18.53;42.76;101476.06;12235376;19;20022;-77
2022/07/15 06:25:47;;;;;;;1.98;0.63;;;20.30;39.50;;;18.51;42.61;101473.53;12241082;19;20026;-77
2022/07/15 06:29:50;;;;;;;0.85;0.60;;;20.40;39.30;;;18.73;42.49;101499.16;12234687;19;20010;-77
2022/07/15 06:33:52;;;;;;;2.42;0.68;;;20.40;39.40;;;18.78;42.41;101490.91;12239394;19;20018;-77
2022/07/15 06:37:54;;;;;;;1.13;0.65;;;20.50;39.30;;;18.78;42.69;101477.69;12237257;19;20022;-76
2022/07/15 06:41:57;;;;;;;0.55;0.45;;;20.60;39.10;;;18.91;42.13;101489.00;12234630;19;20023;-77
2022/07/15 06:45:59;;;;;;;1.35;0.47;;;20.70;39.10;;;18.98;42.30;101503.44;12240301;19;20077;-78
2022/07/15 06:50:01;;;;;;;3.88;0.60;;;21.20;39.00;;;18.99;42.12;101505.13;12239067;19;20018;-78
2022/07/15 06:54:03;;;;;;;1.88;0.70;;;20.80;38.80;;;18.79;42.38;101458.19;12233181;19;20601;-77
2022/07/15 06:58:07;;;;;;;2.38;0.57;;;20.80;38.80;;;19.13;42.20;101511.13;12236268;19;20014;-76
2022/07/15 07:02:11;;;;;;;1.67;0.70;;;20.90;38.90;;;19.20;42.21;101513.19;12233753;19;20135;-79
2022/07/15 07:06:13;;;;;;;2.17;0.70;;;21.10;38.90;;;19.23;41.97;101512.94;12237966;19;20039;-79
2022/07/15 07:10:15;;;;;;;1.95;0.45;;;21.00;38.80;;;19.18;41.83;101490.44;12237126;19;20337;-79
2022/07/15 07:14:18;;;;;;;0.98;0.60;;;21.00;38.50;;;19.26;42.05;101501.25;12235679;19;20014;-78
2022/07/15 07:18:20;;;;;;;2.72;0.60;;;21.10;38.50;;;19.27;41.82;101508.22;12238754;19;20026;-80
2022/07/15 07:22:22;;;;;;;1.15;0.65;;;21.10;38.30;;;19.32;41.72;101510.50;12221351;19;20049;-78
2022/07/15 07:26:23;;;;;;;1.90;0.60;;;21.10;38.20;;;19.35;41.97;101511.09;12204842;19;20014;-79
2022/07/15 07:30:25;;;;;;;2.40;0.70;;;21.20;38.50;;;19.41;42.01;101501.81;12215773;19;20058;-78
2022/07/15 07:34:26;;;;;;;1.00;0.60;;;21.20;38.40;;;19.37;41.69;101484.50;12216343;19;20014;-77
2022/07/15 07:38:29;;;;;;;3.95;0.70;;;21.20;38.30;;;19.46;42.07;101497.84;12216603;19;20043;-77
2022/07/15 07:42:30;;;;;;;4.03;0.88;;;21.20;38.50;;;19.68;41.76;101496.13;12214224;19;20014;-76
2022/07/15 07:46:32;;;;;;;0.52;0.40;;;21.40;38.20;;;19.71;41.55;101506.47;12217608;19;20014;-77
2022/07/15 07:50:34;;;;;;;3.65;0.43;;;21.50;38.20;;;19.77;41.60;101511.31;12217259;19;20014;-77
2022/07/15 07:54:36;;;;;;;3.50;0.70;;;21.50;38.10;;;19.67;41.39;101497.13;12219224;19;20022;-78
2022/07/15 07:58:39;;;;;;;1.73;0.60;;;21.50;38.10;;;19.76;41.68;101514.91;12218266;19;20039;-77
2022/07/15 08:02:41;;;;;;;2.83;0.70;;;21.60;38.20;;;19.70;41.33;101512.75;12216849;19;20097;-77
2022/07/15 08:06:43;;;;;;;3.33;0.60;;;21.60;37.90;;;19.74;41.55;101516.00;12217295;19;20026;-77
2022/07/15 08:10:48;;;;;;;2.08;0.63;;;21.60;38.00;;;19.76;41.54;101508.75;12210694;19;20479;-77
2022/07/15 08:14:51;;;;;;;1.08;0.60;;;21.60;38.10;;;19.84;41.34;101514.28;12197046;19;20023;-78
2022/07/15 08:18:53;;;;;;;1.08;0.52;;;21.60;38.10;;;19.96;41.61;101494.72;12207967;19;20039;-77
2022/07/15 08:22:58;;;;;;;1.45;0.77;;;21.70;38.30;;;20.23;41.71;101512.81;12213029;19;20116;-79
2022/07/15 08:27:01;;;;;;;0.98;0.70;;;21.80;38.10;;;20.15;41.14;101499.34;12216034;19;20052;-81
2022/07/15 08:31:02;;;;;;;2.35;0.88;;;21.90;37.60;;;20.03;41.30;101513.59;12218580;19;20610;-77
2022/07/15 08:35:04;;;;;;;1.67;0.70;;;22.00;37.30;;;20.05;41.02;101516.97;12214389;19;20068;-77
2022/07/15 08:39:06;;;;;;;1.10;0.63;;;21.90;37.70;;;20.00;41.08;101506.75;12216592;19;20018;-78
2022/07/15 08:43:10;;;;;;;1.48;0.50;;;21.90;37.40;;;20.00;41.08;101511.22;12214853;19;20909;-77
2022/07/15 08:47:11;;;;;;;1.75;0.80;;;21.90;37.40;;;19.96;41.14;101505.34;12217409;19;20018;-77
2022/07/15 08:51:14;;;;;;;1.80;0.65;;;21.90;37.30;;;20.09;40.94;101518.41;12218015;19;20026;-77
2022/07/15 08:55:16;;;;;;;3.28;0.50;;;21.80;37.40;;;20.23;41.05;101517.28;12213566;19;20022;-78
2022/07/15 08:59:18;;;;;;;2.05;0.82;;;22.00;37.70;;;20.33;40.92;101524.34;12216550;19;20022;-78
2022/07/15 09:03:19;;;;;;;0.98;0.40;;;22.00;37.30;;;20.46;40.46;101520.63;12212111;19;20104;-79
2022/07/15 09:07:21;;;;;;;5.65;0.68;;;22.10;37.20;;;20.20;40.50;101475.06;12215207;19;20011;-79
2022/07/15 09:11:28;;;;;;;2.00;0.90;;;22.20;36.80;;;20.59;39.95;101520.47;12190404;19;21129;-80
2022/07/15 09:15:33;;;;;;;2.17;0.60;;;22.30;36.70;;;20.73;40.17;101541.38;12198481;19;20014;-78
2022/07/15 09:20:09;;;;;;;0.80;0.60;;;22.40;36.50;;;20.68;40.09;101540.91;12209527;19;20025;-78
2022/07/15 09:24:18;;;;;;;2.08;0.80;;;22.40;36.30;;;20.61;39.76;101539.78;12202179;19;20361;-78
2022/07/15 09:28:20;;;;;;;0.82;0.43;;;22.40;36.40;;;20.57;40.22;101541.00;12209702;19;20764;-78
2022/07/15 09:36:50;;;;;;;2.13;0.57;;;22.40;36.20;;;20.52;39.94;101542.19;12208844;19;20019;-78
2022/07/15 09:40:52;;;;;;;0.57;0.57;;;22.40;36.30;;;20.59;40.37;101545.19;12205209;19;20018;-78
2022/07/15 09:44:53;;;;;;;1.10;0.60;;;22.40;36.40;;;20.72;39.70;101539.69;12209587;19;20023;-78
2022/07/15 09:48:55;;;;;;;1.00;0.65;;;22.70;36.40;;;20.86;39.74;101557.09;12206675;19;20014;-77
2022/07/15 09:52:58;;;;;;;3.63;0.80;;;22.50;36.40;;;20.92;40.12;101552.09;12206122;19;20480;-78
2022/07/15 09:57:03;;;;;;;1.27;0.55;;;22.60;36.40;;;20.91;39.81;101546.94;12206096;19;20023;-77
2022/07/15 10:01:06;;;;;;;0.82;0.52;;;22.70;36.20;;;20.93;39.25;101547.66;12205025;19;20402;-78
2022/07/15 10:05:08;;;;;;;1.20;0.50;;;22.70;36.00;;;20.62;39.37;101496.31;12216011;19;20022;-78
2022/07/15 10:09:10;;;;;;;3.72;1.77;;;22.70;36.00;;;21.05;39.44;101543.91;12218198;19;20134;-79
2022/07/15 10:13:35;;;;;;;1.30;0.60;;;22.80;36.10;;;21.25;39.43;101560.75;12217939;19;20018;-78
2022/07/15 10:18:21;;;;;;;0.70;0.53;;;22.90;36.10;;;21.30;39.63;101555.88;12219197;19;20045;-78
2022/07/15 10:22:41;;;;;;;1.33;0.40;;;22.90;36.20;;;21.34;39.20;101562.63;12214479;19;20511;-78
2022/07/15 10:27:17;;;;;;;1.52;0.60;;;23.00;36.20;;;21.43;39.29;101553.03;12217033;19;20214;-78
2022/07/15 10:31:29;;;;;;;0.82;0.50;;;23.10;36.10;;;21.51;39.13;101529.28;12213099;19;20022;-78
2022/07/15 10:35:41;;;;;;;1.95;0.70;;;23.10;36.10;;;21.73;39.20;101549.47;12212888;19;20430;-78
2022/07/15 10:39:55;;;;;;;2.60;0.50;;;23.30;35.90;;;21.77;38.93;101537.59;12212915;19;20024;-78
2022/07/15 10:44:10;;;;;;;2.97;0.63;;;23.40;35.70;;;21.61;38.37;101540.78;12215201;19;20386;-79
2022/07/15 10:48:30;;;;;;;1.63;0.60;;;23.50;35.40;;;21.64;38.94;101569.75;12215093;19;20014;-81
2022/07/15 10:52:32;;;;;;;1.25;0.60;;;23.40;35.40;;;21.44;38.81;101554.72;12213814;19;20038;-79
2022/07/15 10:56:43;;;;;;;1.45;0.82;;;23.40;35.40;;;21.24;38.87;101521.91;12214057;19;20006;-80
2022/07/15 11:00:46;;;;;;;0.77;0.45;;;23.30;35.30;;;21.38;39.12;101531.34;12215011;19;20026;-78
2022/07/15 11:04:50;;;;;;;0.50;0.45;;;23.30;35.50;;;21.55;38.64;101546.66;12214317;19;20042;-78
2022/07/15 11:08:55;;;;;;;0.88;0.47;;;23.30;35.40;;;21.65;39.06;101558.13;12218327;19;20021;-78
2022/07/15 11:12:59;;;;;;;0.60;0.53;;;23.30;35.50;;;21.58;38.70;101533.09;12211626;19;20018;-77
2022/07/15 11:17:01;;;;;;;2.13;0.50;;;23.60;35.50;;;21.72;38.88;101547.81;12205137;19;20476;-77
2022/07/15 11:21:03;;;;;;;1.20;0.52;;;23.40;35.30;;;21.75;38.46;101552.00;12219527;19;20583;-78
2022/07/15 11:25:06;;;;;;;1.60;0.50;;;23.50;35.30;;;21.74;38.31;101547.66;12217166;19;20031;-77
2022/07/15 11:29:08;;;;;;;0.93;0.50;;;23.50;35.20;;;21.76;38.25;101556.34;12221988;19;20366;-82
2022/07/15 11:33:15;;;;;;;1.10;0.50;;;23.50;35.20;;;21.47;38.48;101511.06;12220846;19;20019;-79
2022/07/15 11:37:20;;;;;;;2.67;0.60;;;23.60;35.30;;;21.67;38.46;101541.22;12220310;19;20365;-82
2022/07/15 11:45:42;;;;;;;1.02;0.60;;;23.50;35.40;;;21.85;38.59;101545.72;12218904;19;20034;-78
2022/07/15 11:49:43;;;;;;;1.02;0.40;;;23.50;35.20;;;21.88;38.26;101545.44;12218004;19;20026;-78
2022/07/15 11:53:47;;;;;;;2.13;0.52;;;23.50;35.10;;;21.87;38.10;101549.09;12219400;19;20018;-78
2022/07/15 11:57:51;;;;;;;3.05;1.20;;;23.60;35.00;;;21.93;38.38;101563.66;12217990;19;20068;-78
2022/07/15 12:02:10;;;;;;;0.98;0.30;;;23.60;34.90;;;21.95;38.11;101558.19;12217289;19;20855;-78
2022/07/15 12:06:16;;;;;;;1.30;0.50;;;23.60;34.70;;;21.81;37.88;101546.97;12218600;19;20045;-78
2022/07/15 12:10:19;;;;;;;0.75;0.40;;;23.60;34.70;;;21.86;37.95;101535.91;12217635;19;20023;-78
2022/07/15 12:14:22;;;;;;;2.28;0.70;;;23.70;34.70;;;21.91;37.83;101544.31;12215036;19;20018;-78
2022/07/15 12:18:24;;;;;;;0.95;0.50;;;23.80;35.00;;;22.03;37.94;101534.38;12218517;19;20031;-78
2022/07/15 12:22:25;;;;;;;1.20;0.70;;;23.70;34.90;;;22.27;37.77;101556.13;12215186;19;20574;-79
2022/07/15 12:26:27;;;;;;;0.70;0.40;;;23.80;35.10;;;22.19;37.58;101545.34;12218650;19;20022;-78
2022/07/15 12:30:39;;;;;;;1.63;0.80;;;24.20;34.80;;;22.20;37.77;101548.88;12213491;19;20022;-77
2022/07/15 12:34:46;;;;;;;1.02;0.63;;;23.90;34.60;;;22.35;37.41;101566.06;12215396;19;20022;-78
2022/07/15 12:39:15;;;;;;;1.52;0.70;;;24.00;34.50;;;22.37;37.52;101573.94;12215497;19;20014;-80
2022/07/15 12:43:17;;;;;;;2.15;0.82;;;24.00;34.30;;;22.27;37.48;101558.78;12216457;19;20081;-78
2022/07/15 12:47:19;;;;;;;1.48;0.60;;;24.00;34.30;;;22.27;37.67;101558.78;12215424;19;20014;-78
2022/07/15 12:51:25;;;;;;;0.60;0.52;;;24.00;34.50;;;22.38;37.41;101562.28;12216139;19;20014;-78
2022/07/15 12:55:31;;;;;;;0.88;0.60;;;24.00;34.30;;;22.37;37.32;101524.19;12212751;19;20143;-78
2022/07/15 12:59:59;;;;;;;1.15;0.60;;;24.40;34.40;;;22.65;37.32;101542.91;12212195;19;20039;-79
2022/07/15 13:04:01;;;;;;;0.60;0.50;;;24.20;34.30;;;22.78;36.98;101538.13;12216547;19;20026;-79
2022/07/15 13:08:03;;;;;;;2.20;0.40;;;24.30;34.10;;;22.87;37.01;101545.25;12214182;19;20014;-79
2022/07/15 13:12:07;;;;;;;2.25;0.50;;;24.50;33.80;;;22.71;36.95;101537.00;12215275;19;20014;-79
2022/07/15 13:16:09;;;;;;;0.82;0.47;;;24.50;33.70;;;22.72;36.78;101555.50;12209750;19;20626;-79
2022/07/15 13:20:12;;;;;;;1.23;0.57;;;24.50;33.70;;;22.66;36.87;101549.94;12214997;19;20042;-79
2022/07/15 13:24:13;;;;;;;1.05;0.40;;;24.40;33.50;;;22.62;36.83;101560.00;12215243;19;20088;-79
2022/07/15 13:28:15;;;;;;;0.75;0.50;;;24.40;33.50;;;22.46;36.42;101555.25;12215880;19;20026;-79
2022/07/15 13:32:17;;;;;;;1.48;0.60;;;24.30;33.50;;;22.42;36.61;101547.72;12213975;19;20011;-79
2022/07/15 13:36:18;;;;;;;1.70;0.60;;;24.30;33.50;;;22.48;36.77;101541.81;12209645;19;20117;-79
2022/07/15 13:40:20;;;;;;;1.05;0.50;;;24.30;33.70;;;22.56;36.77;101544.63;12221162;19;20835;-79
2022/07/15 13:44:22;;;;;;;0.73;0.50;;;24.20;33.80;;;22.75;36.48;101546.41;12228653;19;20017;-79
2022/07/15 13:48:23;;;;;;;1.10;0.88;;;24.40;33.80;;;22.78;36.56;101540.78;12229567;19;20022;-79
2022/07/15 13:52:25;;;;;;;0.47;0.47;;;24.40;33.50;;;22.63;36.27;101521.78;12224886;19;20019;-79
2022/07/15 13:56:27;;;;;;;0.47;0.35;;;24.40;33.50;;;22.50;36.25;101510.59;12230022;19;20089;-79
2022/07/15 14:00:28;;;;;;;2.10;0.70;;;24.60;33.60;;;22.49;36.31;101501.78;12224849;19;20705;-79
2022/07/15 14:04:31;;;;;;;1.90;0.50;;;24.40;33.60;;;22.87;36.31;101550.59;12226868;19;20023;-79
2022/07/15 14:08:34;;;;;;;0.65;0.40;;;24.60;33.80;;;23.07;36.07;101553.22;12223696;19;20014;-79
2022/07/15 14:12:35;;;;;;;1.65;0.50;;;24.80;33.80;;;23.04;36.06;101535.69;12222261;19;20352;-79
2022/07/15 14:16:37;;;;;;;2.50;0.70;;;24.70;33.60;;;23.10;35.74;101526.25;12222485;19;20855;-79
2022/07/15 14:20:41;;;;;;;1.58;0.73;;;24.70;33.50;;;23.23;36.10;101537.44;12213677;19;20014;-79
2022/07/15 14:24:43;;;;;;;3.33;0.60;;;24.70;33.60;;;23.27;35.61;101530.81;12210323;19;20022;-78
2022/07/15 14:28:44;;;;;;;0.60;0.40;;;24.90;33.30;;;23.29;35.71;101530.66;12222676;19;20014;-78
2022/07/15 14:32:46;;;;;;;0.45;0.45;;;24.90;33.50;;;23.35;35.58;101548.72;12219280;19;20010;-79
2022/07/15 14:36:48;;;;;;;2.20;0.52;;;25.00;33.30;;;23.16;35.72;101539.00;12226366;19;20017;-79
2022/07/15 14:40:50;;;;;;;1.63;0.52;;;24.90;33.20;;;23.23;35.68;101556.09;12220476;19;20018;-79
2022/07/15 14:44:52;;;;;;;0.50;0.47;;;25.00;33.30;;;23.10;35.60;101543.09;12225041;19;20033;-78
2022/07/15 14:48:54;;;;;;;1.50;0.60;;;25.00;33.20;;;23.02;35.66;101534.16;12221644;19;20419;-79
2022/07/15 14:52:55;;;;;;;0.85;0.63;;;25.10;33.30;;;23.04;35.54;101545.50;12199212;19;20018;-79
2022/07/15 14:56:57;;;;;;;2.67;0.80;;;24.90;33.20;;;22.97;35.96;101543.41;12196224;19;20038;-78
2022/07/15 15:00:58;;;;;;;1.98;0.85;;;24.80;33.40;;;22.95;35.61;101550.69;12213881;19;20284;-78
2022/07/15 15:05:00;;;;;;;0.63;0.50;;;24.70;33.10;;;22.78;36.13;101538.13;12221432;19;20025;-78
2022/07/15 15:09:01;;;;;;;1.77;0.70;;;24.70;33.30;;;22.81;36.02;101548.47;12222198;19;20018;-78
2022/07/15 15:13:03;;;;;;;0.88;0.52;;;24.60;33.30;;;22.77;36.00;101547.09;12218607;19;20827;-79
2022/07/15 15:17:05;;;;;;;1.90;0.60;;;24.60;33.40;;;22.82;35.87;101559.97;12224157;19;20014;-78
2022/07/15 15:21:07;;;;;;;5.07;0.50;;;24.50;33.40;;;22.85;36.03;101560.53;12218801;19;20035;-78
2022/07/15 15:25:09;;;;;;;1.48;0.50;;;24.50;33.50;;;22.78;36.13;101539.94;12217668;19;20129;-77
2022/07/15 15:29:11;;;;;;;2.67;0.60;;;24.50;33.50;;;22.56;35.82;101507.34;12220159;19;20027;-78
2022/07/15 15:33:13;;;;;;;0.93;0.75;;;24.50;33.50;;;22.75;35.64;101536.56;12218212;19;20014;-77
2022/07/15 15:37:15;;;;;;;0.77;0.55;;;24.60;33.50;;;22.89;35.88;101551.25;12224002;19;20018;-77
2022/07/15 15:41:17;;;;;;;1.33;0.68;;;24.60;33.40;;;22.96;35.58;101551.56;12219546;19;20013;-77
2022/07/15 15:45:18;;;;;;;1.48;0.60;;;24.60;33.40;;;22.83;35.95;101527.88;12222185;19;20089;-77
2022/07/15 15:49:20;;;;;;;1.55;0.70;;;24.60;33.20;;;22.73;35.47;101514.56;12220304;19;20015;-78
2022/07/15 15:53:21;;;;;;;2.03;0.82;;;24.70;33.20;;;22.80;35.73;101536.16;12220498;19;20094;-77
2022/07/15 15:57:23;;;;;;;0.60;0.60;;;24.70;33.10;;;22.78;35.59;101530.13;12219584;19;20010;-77
2022/07/15 16:01:25;;;;;;;2.33;1.02;;;24.70;33.20;;;22.81;35.68;101543.16;12214790;19;20039;-77
2022/07/15 16:05:27;;;;;;;1.17;0.70;;;24.50;33.00;;;22.68;35.53;101526.63;12225690;19;20015;-77
2022/07/15 16:09:28;;;;;;;2.85;0.68;;;24.50;33.10;;;22.69;35.74;101520.34;12224527;19;20051;-77
2022/07/15 16:13:30;;;;;;;1.83;0.70;;;24.50;33.10;;;22.72;35.60;101520.06;12224043;19;20027;-77
2022/07/15 16:17:31;;;;;;;1.80;1.30;;;24.50;33.10;;;22.65;35.47;101517.13;12224390;19;20057;-77
2022/07/15 16:25:53;;;;;;;2.50;0.80;;;24.40;33.10;;;22.69;35.62;101513.19;12223588;19;20015;-77
2022/07/15 16:29:55;;;;;;;1.88;0.90;;;24.40;33.10;;;22.78;35.67;101514.16;12222234;19;20052;-77
2022/07/15 16:33:56;;;;;;;2.42;0.88;;;24.50;33.30;;;22.94;35.48;101519.69;12222343;19;20014;-77
2022/07/15 16:37:59;;;;;;;0.90;0.65;;;24.70;33.40;;;22.93;35.22;101509.19;12221167;19;20555;-77
2022/07/15 16:42:01;;;;;;;1.00;0.88;;;24.60;33.20;;;22.95;35.47;101510.72;12222507;19;20018;-77
2022/07/15 16:46:03;;;;;;;1.38;0.70;;;24.70;33.10;;;22.96;35.44;101506.28;12223071;19;20667;-77
2022/07/15 16:50:07;;;;;;;1.35;0.90;;;24.90;33.20;;;23.05;35.26;101529.34;12223914;19;20095;-77
2022/07/15 16:54:08;;;;;;;0.80;0.80;;;24.70;33.10;;;22.96;35.03;101515.09;12221069;19;20019;-78
2022/07/15 16:58:10;;;;;;;1.30;0.95;;;24.80;33.10;;;22.93;35.23;101515.38;12223576;19;20018;-77